Time;durP1;ratioP1;P1;durP2;ratioP2;P2;SDS_P1;SDS_P2;PMS_P1;PMS_P2;Temp;Humidity;BMP_temperature;BMP_pressure;BME280_temperature;BME280_humidity;BME280_pressure;Samples;Min_cycle;Max_cycle;Signal;HPM_P1;HPM_P2
2022/10/06 00:00:43;;;;;;;8.43;1.30;;;14.60;99.90;;;;;;5021604;28;20452;-77
2022/10/06 00:03:08;;;;;;;7.65;1.13;;;14.60;99.90;;;;;;5023156;28;20120;-78
2022/10/06 00:05:34;;;;;;;5.35;1.10;;;14.50;99.90;;;;;;5026494;28;20448;-78
2022/10/06 00:08:01;;;;;;;5.32;1.10;;;14.50;99.90;;;;;;5021019;28;20041;-81
2022/10/06 00:10:27;;;;;;;7.18;1.27;;;14.50;99.90;;;;;;5023802;28;20046;-80
2022/10/06 00:12:53;;;;;;;6.90;1.27;;;14.40;99.90;;;;;;5025799;28;20052;-80
2022/10/06 00:15:25;;;;;;;7.03;1.08;;;14.40;99.90;;;;;;5024912;28;20045;-79
2022/10/06 00:17:51;;;;;;;7.00;1.20;;;14.40;99.90;;;;;;5024328;28;20099;-79
2022/10/06 00:20:18;;;;;;;3.33;1.00;;;14.30;99.90;;;;;;5001575;28;20041;-78
2022/10/06 00:22:47;;;;;;;4.45;1.13;;;14.40;99.90;;;;;;5019189;28;20488;-77
2022/10/06 00:25:16;;;;;;;7.72;1.20;;;14.30;99.90;;;;;;5023399;28;20484;-79
2022/10/06 00:27:43;;;;;;;6.57;1.25;;;14.30;99.90;;;;;;5004954;28;20081;-78
2022/10/06 00:30:12;;;;;;;5.93;1.10;;;14.30;99.90;;;;;;5020987;28;20045;-79
2022/10/06 00:32:39;;;;;;;5.97;1.15;;;14.30;99.90;;;;;;5023650;28;20088;-78
2022/10/06 00:35:06;;;;;;;2.70;1.02;;;14.30;99.90;;;;;;5023512;28;20449;-79
2022/10/06 00:37:36;;;;;;;4.13;1.15;;;14.20;99.90;;;;;;5019041;28;20120;-78
2022/10/06 00:40:08;;;;;;;3.67;0.90;;;14.20;99.90;;;;;;5023138;28;20501;-78
2022/10/06 00:42:34;;;;;;;5.88;1.38;;;14.20;99.90;;;;;;5004617;28;20044;-79
2022/10/06 00:45:04;;;;;;;9.00;1.30;;;14.20;99.90;;;;;;5025383;28;20132;-79
2022/10/06 00:47:32;;;;;;;5.07;1.20;;;14.20;99.90;;;;;;5014627;28;20062;-79
2022/10/06 00:49:59;;;;;;;5.68;1.33;;;14.10;99.90;;;;;;4993373;28;20120;-77
2022/10/06 00:52:28;;;;;;;;;;;14.10;99.90;;;;;;5008219;28;20054;-79
2022/10/06 00:54:54;;;;;;;3.50;1.10;;;14.10;99.90;;;;;;5005944;28;19922;-79
2022/10/06 00:57:20;;;;;;;6.32;1.30;;;14.00;99.90;;;;;;5009312;28;20033;-80
2022/10/06 00:59:46;;;;;;;7.55;1.63;;;14.00;99.90;;;;;;5005531;28;20050;-79
2022/10/06 01:02:21;;;;;;;10.00;1.48;;;14.00;99.90;;;;;;5003518;28;20044;-78
2022/10/06 01:04:51;;;;;;;6.40;1.38;;;14.00;99.90;;;;;;4990936;28;20108;-78
2022/10/06 01:07:20;;;;;;;5.18;1.63;;;14.00;99.90;;;;;;5008917;28;20490;-78
2022/10/06 01:09:46;;;;;;;6.43;1.20;;;13.90;99.90;;;;;;5002285;28;20046;-79
2022/10/06 01:12:13;;;;;;;7.63;1.33;;;13.90;99.90;;;;;;4989981;28;20057;-77
2022/10/06 01:14:40;;;;;;;5.55;1.45;;;13.90;99.90;;;;;;5002935;28;20120;-78
2022/10/06 01:17:22;;;;;;;7.82;2.78;;;13.90;99.90;;;;;;5008622;28;20481;-79
2022/10/06 01:19:55;;;;;;;11.18;1.67;;;13.80;99.90;;;;;;5003745;28;20046;-77
2022/10/06 01:22:52;;;;;;;8.15;1.55;;;13.80;99.90;;;;;;5004667;28;20060;-78
2022/10/06 01:25:19;;;;;;;7.18;1.50;;;13.80;99.90;;;;;;5004031;28;20454;-79
2022/10/06 01:27:52;;;;;;;6.17;1.73;;;13.80;99.90;;;;;;5006109;28;20050;-79
2022/10/06 01:30:24;;;;;;;6.60;1.50;;;13.70;99.90;;;;;;5005295;28;20285;-79
2022/10/06 01:32:51;;;;;;;7.57;1.58;;;13.70;99.90;;;;;;4988265;28;20497;-78
2022/10/06 01:35:16;;;;;;;9.00;1.73;;;13.70;99.90;;;;;;4997402;28;20380;-78
2022/10/06 01:37:42;;;;;;;11.68;2.30;;;13.70;99.90;;;;;;5007309;28;20064;-79
2022/10/06 01:40:08;;;;;;;8.88;1.50;;;13.70;99.90;;;;;;5009959;28;20069;-78
2022/10/06 01:42:35;;;;;;;7.82;1.90;;;13.70;99.90;;;;;;5002848;28;20050;-79
2022/10/06 01:45:01;;;;;;;7.72;1.95;;;13.60;99.90;;;;;;5002035;28;20548;-78
2022/10/06 01:47:27;;;;;;;5.68;1.70;;;13.60;99.90;;;;;;4997834;28;20049;-79
2022/10/06 01:49:53;;;;;;;10.63;1.88;;;13.60;99.90;;;;;;5000088;28;20500;-79
2022/10/06 01:52:19;;;;;;;6.15;1.45;;;13.60;99.90;;;;;;5004935;28;20077;-79
2022/10/06 01:54:45;;;;;;;8.63;1.65;;;13.50;99.90;;;;;;4994915;28;20065;-79
2022/10/06 01:57:10;;;;;;;10.07;2.13;;;13.50;99.90;;;;;;4993428;28;20198;-78
2022/10/06 01:59:36;;;;;;;8.35;1.80;;;13.50;99.90;;;;;;5007217;28;20045;-77
2022/10/06 02:02:03;;;;;;;10.98;2.05;;;13.50;99.90;;;;;;4999284;28;20597;-79
2022/10/06 02:04:29;;;;;;;7.88;1.75;;;13.40;99.90;;;;;;4987823;28;20088;-78
2022/10/06 02:06:54;;;;;;;7.88;1.95;;;13.50;99.90;;;;;;4987107;28;20081;-79
2022/10/06 02:09:24;;;;;;;6.78;1.58;;;13.40;99.90;;;;;;5010353;28;20037;-78
2022/10/06 02:11:49;;;;;;;8.20;1.77;;;13.40;99.90;;;;;;5003177;28;20544;-77
2022/10/06 02:14:16;;;;;;;9.02;2.10;;;13.40;99.90;;;;;;5004854;28;20045;-80
2022/10/06 02:16:43;;;;;;;;;;;13.30;99.90;;;;;;5010470;28;20041;-78
2022/10/06 02:19:08;;;;;;;9.18;1.95;;;13.30;99.90;;;;;;4999122;28;19947;-78
2022/10/06 02:21:34;;;;;;;10.13;2.20;;;13.30;99.90;;;;;;4994421;28;20041;-77
2022/10/06 02:24:00;;;;;;;10.40;3.30;;;13.20;99.90;;;;;;5003613;28;20042;-78
2022/10/06 02:26:28;;;;;;;9.52;1.80;;;13.20;99.90;;;;;;5005796;28;20038;-79
2022/10/06 02:28:57;;;;;;;11.88;1.95;;;13.20;99.90;;;;;;5005371;28;20053;-78
2022/10/06 02:31:23;;;;;;;9.60;1.80;;;13.20;99.90;;;;;;5005281;28;20053;-76
2022/10/06 02:33:50;;;;;;;10.05;1.90;;;13.20;99.90;;;;;;5003667;28;20404;-78
2022/10/06 02:36:16;;;;;;;11.20;2.22;;;13.20;99.90;;;;;;5004920;28;20703;-77
2022/10/06 02:38:42;;;;;;;14.50;2.60;;;13.20;99.90;;;;;;5017319;28;20108;-78
2022/10/06 02:41:09;;;;;;;10.00;2.22;;;13.20;99.90;;;;;;5011041;28;20516;-78
2022/10/06 02:43:35;;;;;;;9.52;1.92;;;13.20;99.90;;;;;;5006852;28;20132;-78
2022/10/06 02:46:04;;;;;;;8.55;2.05;;;13.20;99.90;;;;;;5012995;28;20049;-79
2022/10/06 02:48:32;;;;;;;9.65;2.40;;;13.20;99.90;;;;;;5017715;28;20092;-78
2022/10/06 02:51:06;;;;;;;10.23;2.00;;;13.20;99.90;;;;;;5025319;28;20180;-79
2022/10/06 02:53:33;;;;;;;10.13;2.08;;;13.20;99.90;;;;;;5021523;28;20088;-78
2022/10/06 02:56:10;;;;;;;9.38;2.20;;;13.20;99.90;;;;;;5023754;28;20140;-79
2022/10/06 02:58:38;;;;;;;12.40;2.30;;;13.20;99.90;;;;;;5025149;28;20488;-79
2022/10/06 03:01:07;;;;;;;16.38;2.30;;;13.10;99.90;;;;;;5025440;28;20049;-78
2022/10/06 03:03:34;;;;;;;10.70;1.95;;;13.10;99.90;;;;;;5021953;28;20045;-78
2022/10/06 03:06:01;;;;;;;12.63;2.45;;;13.10;99.90;;;;;;5026842;28;20053;-79
2022/10/06 03:08:27;;;;;;;12.20;2.55;;;13.10;99.90;;;;;;5024021;28;20053;-77
2022/10/06 03:10:59;;;;;;;12.15;2.58;;;13.00;99.90;;;;;;5009073;28;20113;-79
2022/10/06 03:13:26;;;;;;;13.05;2.33;;;13.00;99.90;;;;;;5025114;28;20057;-78
2022/10/06 03:15:52;;;;;;;15.25;2.80;;;13.00;99.90;;;;;;5023414;28;20045;-78
2022/10/06 03:18:17;;;;;;;15.57;2.40;;;13.00;99.90;;;;;;5006759;28;20172;-79
2022/10/06 03:20:43;;;;;;;10.82;2.63;;;12.90;99.90;;;;;;5025449;28;20041;-79
2022/10/06 03:23:09;;;;;;;13.30;2.00;;;13.00;99.90;;;;;;5001510;28;20041;-79
2022/10/06 03:25:34;;;;;;;9.95;1.95;;;12.90;99.90;;;;;;5025164;28;20119;-78
2022/10/06 03:28:00;;;;;;;14.48;2.85;;;12.90;99.90;;;;;;5025117;28;20041;-79
2022/10/06 03:30:26;;;;;;;12.35;2.15;;;12.90;99.90;;;;;;5006442;28;20695;-78
2022/10/06 03:32:51;;;;;;;19.23;2.63;;;12.90;99.90;;;;;;5023837;28;20041;-79
2022/10/06 03:35:17;;;;;;;8.88;2.72;;;12.80;99.90;;;;;;5025875;28;20048;-79
2022/10/06 03:37:43;;;;;;;9.27;2.30;;;12.80;99.90;;;;;;5026249;28;20063;-79
2022/10/06 03:40:09;;;;;;;18.63;3.00;;;12.80;99.90;;;;;;5023171;28;20056;-78
2022/10/06 03:42:34;;;;;;;15.43;2.63;;;12.70;99.90;;;;;;5023706;28;20049;-79
2022/10/06 03:45:00;;;;;;;14.55;2.25;;;12.70;99.90;;;;;;5022636;28;20084;-79
2022/10/06 03:47:31;;;;;;;10.48;2.10;;;12.80;99.90;;;;;;5022159;28;20050;-79
2022/10/06 03:49:57;;;;;;;11.23;1.98;;;12.70;99.90;;;;;;5012574;28;20448;-78
2022/10/06 03:52:24;;;;;;;13.45;2.47;;;12.70;99.90;;;;;;5025497;28;20056;-80
2022/10/06 03:54:50;;;;;;;12.57;2.33;;;12.70;99.90;;;;;;5008184;28;20112;-79
2022/10/06 03:57:15;;;;;;;11.25;2.30;;;12.70;99.90;;;;;;5023780;28;21679;-78
2022/10/06 03:59:41;;;;;;;10.10;2.30;;;12.60;99.90;;;;;;5024179;28;20037;-79
2022/10/06 04:02:07;;;;;;;13.50;2.80;;;12.60;99.90;;;;;;5023684;28;20048;-79
2022/10/06 04:04:32;;;;;;;11.25;2.40;;;12.60;99.90;;;;;;5025789;28;20088;-78
2022/10/06 04:06:58;;;;;;;11.48;2.30;;;12.60;99.90;;;;;;5022709;28;20401;-78
2022/10/06 04:09:24;;;;;;;14.57;2.20;;;12.50;99.90;;;;;;5022601;28;20076;-78
2022/10/06 04:11:50;;;;;;;13.30;2.58;;;12.50;99.90;;;;;;5025059;28;20548;-80
2022/10/06 04:14:16;;;;;;;9.10;2.10;;;12.50;99.90;;;;;;5024438;28;20108;-78
2022/10/06 04:16:47;;;;;;;9.55;2.40;;;12.50;99.90;;;;;;5023425;28;20497;-78
2022/10/06 04:19:14;;;;;;;13.30;2.33;;;12.40;99.90;;;;;;5003640;28;20041;-79
2022/10/06 04:21:42;;;;;;;11.73;2.80;;;12.50;99.90;;;;;;5024565;28;20081;-78
2022/10/06 04:24:09;;;;;;;13.48;2.30;;;12.50;99.90;;;;;;5021350;28;20049;-81
2022/10/06 04:26:38;;;;;;;12.48;2.55;;;12.40;99.90;;;;;;5023851;28;20053;-79
2022/10/06 04:29:04;;;;;;;9.20;1.75;;;12.40;99.90;;;;;;5022761;28;20370;-77
2022/10/06 04:31:33;;;;;;;10.52;2.20;;;12.40;99.90;;;;;;5022634;28;20099;-77
2022/10/06 04:34:00;;;;;;;11.07;2.17;;;12.40;99.90;;;;;;5022996;28;20061;-78
2022/10/06 04:36:31;;;;;;;10.20;2.03;;;12.40;99.90;;;;;;5024686;28;20045;-77
2022/10/06 04:39:00;;;;;;;18.10;3.47;;;12.40;99.90;;;;;;5009072;28;20045;-80
2022/10/06 04:41:32;;;;;;;12.38;2.50;;;12.40;99.90;;;;;;5024860;28;20061;-79
2022/10/06 04:43:58;;;;;;;9.38;2.00;;;12.40;99.90;;;;;;5024612;28;20500;-79
2022/10/06 04:46:25;;;;;;;11.93;2.50;;;12.40;99.90;;;;;;5025855;28;20431;-78
2022/10/06 04:48:52;;;;;;;11.63;2.50;;;12.40;99.90;;;;;;5026080;28;20509;-82
2022/10/06 04:51:19;;;;;;;10.98;2.58;;;12.40;99.90;;;;;;5027216;28;20053;-80
2022/10/06 04:53:45;;;;;;;11.25;2.10;;;12.40;99.90;;;;;;5022246;28;20046;-78
2022/10/06 04:56:15;;;;;;;10.40;2.28;;;12.30;99.90;;;;;;5006293;28;20061;-79
2022/10/06 04:58:43;;;;;;;12.85;2.20;;;12.30;99.90;;;;;;5007742;28;20481;-80
2022/10/06 05:01:20;;;;;;;11.75;2.30;;;12.30;99.90;;;;;;5024104;28;20041;-79
2022/10/06 05:03:49;;;;;;;14.43;2.70;;;12.30;99.90;;;;;;5023136;28;20103;-79
2022/10/06 05:06:20;;;;;;;14.57;2.00;;;12.30;99.90;;;;;;5024455;28;20045;-81
2022/10/06 05:09:00;;;;;;;11.07;2.13;;;12.30;99.90;;;;;;5014665;28;20076;-77
2022/10/06 05:11:26;;;;;;;11.93;2.17;;;12.30;99.90;;;;;;5008528;28;20048;-77
2022/10/06 05:13:55;;;;;;;7.07;1.80;;;12.20;99.90;;;;;;5007176;28;20072;-77
2022/10/06 05:16:22;;;;;;;9.55;2.13;;;12.20;99.90;;;;;;5019818;28;20508;-77
2022/10/06 05:18:47;;;;;;;11.40;2.03;;;12.20;99.90;;;;;;5023983;28;20057;-77
2022/10/06 05:21:16;;;;;;;12.10;2.35;;;12.20;99.90;;;;;;5017733;28;20721;-77
2022/10/06 05:23:43;;;;;;;11.27;2.58;;;12.10;99.90;;;;;;5016686;28;20048;-77
2022/10/06 05:26:14;;;;;;;14.25;2.55;;;12.10;99.90;;;;;;5022164;28;20061;-77
2022/10/06 05:28:40;;;;;;;13.13;2.10;;;12.10;99.90;;;;;;5006834;28;20128;-77
2022/10/06 05:31:23;;;;;;;13.98;2.65;;;12.10;99.90;;;;;;5000674;28;20158;-76
2022/10/06 05:33:49;;;;;;;11.88;2.65;;;12.20;99.90;;;;;;5024090;28;20132;-77
2022/10/06 05:36:20;;;;;;;11.95;2.83;;;12.00;99.90;;;;;;5021100;28;20068;-77
2022/10/06 05:38:46;;;;;;;14.90;2.83;;;12.00;99.90;;;;;;5002211;28;20107;-77
2022/10/06 05:41:22;;;;;;;14.30;2.38;;;12.00;99.90;;;;;;5021909;28;20060;-74
2022/10/06 05:43:48;;;;;;;13.60;2.45;;;12.00;99.90;;;;;;5001879;28;20078;-77
2022/10/06 05:46:19;;;;;;;12.25;2.20;;;11.90;99.90;;;;;;5021101;28;20148;-77
2022/10/06 05:48:51;;;;;;;11.15;2.47;;;11.90;99.90;;;;;;5021155;28;20172;-77
2022/10/06 05:51:18;;;;;;;11.20;2.17;;;11.90;99.90;;;;;;5019149;28;20398;-77
2022/10/06 05:53:44;;;;;;;11.02;1.80;;;12.00;99.90;;;;;;5021348;28;20045;-77
2022/10/06 05:56:11;;;;;;;12.10;2.30;;;12.00;99.90;;;;;;5021473;28;20045;-81
2022/10/06 05:58:39;;;;;;;13.10;2.33;;;11.90;99.90;;;;;;5022804;28;20048;-77
2022/10/06 06:01:17;;;;;;;13.80;2.60;;;11.90;99.90;;;;;;5019145;28;20044;-77
2022/10/06 06:03:50;;;;;;;14.20;2.70;;;11.90;99.90;;;;;;5000055;28;20056;-74
2022/10/06 06:06:18;;;;;;;11.63;2.53;;;11.90;99.90;;;;;;5019332;28;20120;-74
2022/10/06 06:08:44;;;;;;;12.32;2.30;;;11.80;99.90;;;;;;5015724;28;20410;-77
2022/10/06 06:11:10;;;;;;;14.90;2.85;;;11.90;99.90;;;;;;5000437;28;20500;-77
2022/10/06 06:13:36;;;;;;;12.85;2.30;;;11.90;99.90;;;;;;5022998;28;20033;-77
2022/10/06 06:16:05;;;;;;;17.45;2.13;;;11.90;99.90;;;;;;5020941;28;20384;-77
2022/10/06 06:18:33;;;;;;;11.77;2.25;;;11.90;99.90;;;;;;5026269;28;20042;-74
2022/10/06 06:21:01;;;;;;;10.52;2.67;;;11.90;99.90;;;;;;5023963;28;20045;-75
2022/10/06 06:23:35;;;;;;;10.70;2.08;;;11.90;99.90;;;;;;5018538;28;20489;-76
2022/10/06 06:26:05;;;;;;;12.68;2.45;;;12.00;99.90;;;;;;5008226;28;20068;-75
2022/10/06 06:28:31;;;;;;;15.18;2.90;;;11.90;99.90;;;;;;5024466;28;20053;-76
2022/10/06 06:31:09;;;;;;;13.18;2.30;;;12.00;99.90;;;;;;5007858;28;20045;-76
2022/10/06 06:33:36;;;;;;;16.55;2.60;;;12.00;99.90;;;;;;5027428;28;20037;-76
2022/10/06 06:36:10;;;;;;;;;;;12.10;99.90;;;;;;5003410;28;20100;-75
2022/10/06 06:38:36;;;;;;;10.35;2.08;;;12.00;99.90;;;;;;5025112;28;19968;-76
2022/10/06 06:41:01;;;;;;;12.38;2.25;;;12.10;99.90;;;;;;5006793;28;20065;-75
2022/10/06 06:43:34;;;;;;;13.60;2.20;;;12.10;99.90;;;;;;5029106;28;20042;-80
2022/10/06 06:46:03;;;;;;;12.70;2.22;;;12.10;99.90;;;;;;5026389;28;20759;-81
2022/10/06 06:48:29;;;;;;;12.18;2.38;;;12.10;99.90;;;;;;5004071;28;20580;-80
2022/10/06 06:51:00;;;;;;;13.20;2.55;;;12.10;99.90;;;;;;5027674;28;20136;-78
2022/10/06 06:53:33;;;;;;;12.50;2.80;;;12.20;99.90;;;;;;5028996;28;20063;-81
2022/10/06 06:55:58;;;;;;;12.40;2.58;;;12.20;99.90;;;;;;5026405;28;20038;-78
2022/10/06 06:58:24;;;;;;;11.63;2.47;;;12.30;99.90;;;;;;5026417;28;20416;-79
2022/10/06 07:01:13;;;;;;;13.20;2.35;;;12.30;99.90;;;;;;5024608;28;20484;-87
2022/10/06 07:03:44;;;;;;;17.27;3.08;;;12.40;99.90;;;;;;5020978;28;20456;-83
2022/10/06 07:06:15;;;;;;;16.55;2.47;;;12.40;99.90;;;;;;5002888;28;20075;-85
2022/10/06 07:08:46;;;;;;;11.95;2.13;;;12.40;99.90;;;;;;5010589;28;20034;-82
2022/10/06 07:11:21;;;;;;;12.82;2.65;;;12.40;99.90;;;;;;5019147;28;20037;-83
2022/10/06 07:13:52;;;;;;;11.40;2.05;;;12.50;99.90;;;;;;5025075;28;20041;-83
2022/10/06 07:27:21;;;;;;;13.38;2.78;;;12.60;99.90;;;;;;5027811;28;20038;-81
2022/10/06 07:29:50;;;;;;;13.38;2.65;;;12.60;99.90;;;;;;5026635;28;20057;-82
2022/10/06 07:32:19;;;;;;;12.52;2.33;;;12.70;99.90;;;;;;5027917;28;20054;-80
2022/10/06 07:34:46;;;;;;;15.68;2.92;;;12.70;99.90;;;;;;5025041;28;20042;-80
2022/10/06 07:37:16;;;;;;;8.50;2.28;;;12.80;99.90;;;;;;5025305;28;20058;-78
2022/10/06 07:39:43;;;;;;;13.65;2.30;;;12.80;99.90;;;;;;5006770;28;20460;-81
2022/10/06 07:42:13;;;;;;;14.63;2.42;;;12.90;99.90;;;;;;5025531;28;20037;-79
2022/10/06 07:44:43;;;;;;;14.27;2.70;;;12.90;99.90;;;;;;5034099;28;20044;-82
2022/10/06 07:47:09;;;;;;;15.43;2.90;;;12.90;99.90;;;;;;5033676;28;20045;-82
2022/10/06 07:49:35;;;;;;;10.90;2.80;;;13.00;99.90;;;;;;5022497;28;20130;-81
2022/10/06 07:52:01;;;;;;;15.70;2.53;;;13.10;99.90;;;;;;5011602;28;20064;-81
2022/10/06 07:54:30;;;;;;;11.90;2.22;;;13.10;99.90;;;;;;4988181;28;20573;-78
2022/10/06 07:56:55;;;;;;;11.50;2.33;;;13.10;99.90;;;;;;4984688;28;20054;-75
2022/10/06 07:59:21;;;;;;;14.00;2.30;;;13.20;99.90;;;;;;5017485;28;20063;-75
2022/10/06 08:01:49;;;;;;;14.80;2.55;;;13.20;99.90;;;;;;5004532;28;20085;-76
2022/10/06 08:04:15;;;;;;;14.10;2.28;;;13.30;99.90;;;;;;5000521;28;20050;-76
2022/10/06 08:06:41;;;;;;;12.02;2.10;;;13.30;99.90;;;;;;5011563;28;20087;-76
2022/10/06 08:09:07;;;;;;;11.02;2.75;;;13.30;99.90;;;;;;5006127;28;20110;-77
2022/10/06 08:11:32;;;;;;;14.43;2.42;;;13.30;99.90;;;;;;5000631;28;20041;-78
2022/10/06 08:14:00;;;;;;;11.60;2.15;;;13.40;99.90;;;;;;5026809;28;20038;-77
2022/10/06 08:16:29;;;;;;;11.95;2.47;;;13.50;99.90;;;;;;5001701;28;20060;-78
2022/10/06 08:18:56;;;;;;;15.90;2.95;;;13.50;99.90;;;;;;5008080;28;20107;-77
2022/10/06 08:21:27;;;;;;;15.27;2.65;;;13.50;99.90;;;;;;5009460;28;20050;-78
2022/10/06 08:23:54;;;;;;;16.80;2.45;;;13.60;99.90;;;;;;5008256;28;20528;-80
2022/10/06 08:26:21;;;;;;;13.93;3.00;;;13.50;99.90;;;;;;5010717;28;20050;-78
2022/10/06 08:28:49;;;;;;;11.88;2.53;;;13.60;99.90;;;;;;5003616;28;20054;-77
2022/10/06 08:31:17;;;;;;;11.35;2.15;;;13.70;99.90;;;;;;5012629;28;20517;-81
2022/10/06 08:33:44;;;;;;;15.07;2.50;;;13.70;99.90;;;;;;5009367;28;20041;-81
2022/10/06 08:36:16;;;;;;;14.67;2.70;;;13.80;99.90;;;;;;5009404;28;20046;-86
2022/10/06 08:38:42;;;;;;;12.80;2.28;;;13.80;99.90;;;;;;5013318;28;20307;-77
2022/10/06 08:41:23;;;;;;;14.55;2.63;;;13.80;99.90;;;;;;5000597;28;20045;-79
2022/10/06 08:44:16;;;;;;;15.63;2.65;;;13.90;99.90;;;;;;4993507;28;20448;-76
2022/10/06 08:46:54;;;;;;;13.60;2.60;;;13.90;99.90;;;;;;4992154;28;20743;-79
2022/10/06 08:49:24;;;;;;;12.40;2.63;;;14.00;99.90;;;;;;5001808;28;20062;-81
2022/10/06 08:51:54;;;;;;;13.30;2.58;;;14.00;99.90;;;;;;5008010;28;20064;-77
2022/10/06 08:54:38;;;;;;;9.73;2.08;;;14.10;99.90;;;;;;5006716;28;20038;-76
2022/10/06 08:57:16;;;;;;;13.18;2.67;;;14.10;99.90;;;;;;4992232;28;20045;-77
2022/10/06 08:59:45;;;;;;;14.20;2.40;;;14.10;99.90;;;;;;5005577;28;20491;-86
2022/10/06 09:02:41;;;;;;;12.57;2.63;;;14.20;99.90;;;;;;5006595;28;20038;-82
2022/10/06 09:05:10;;;;;;;13.18;2.33;;;14.20;99.90;;;;;;5004829;28;20054;-81
2022/10/06 09:08:02;;;;;;;12.85;2.13;;;14.30;99.90;;;;;;4990700;28;20496;-81
2022/10/06 09:10:42;;;;;;;13.25;2.25;;;14.30;99.90;;;;;;5003929;28;20559;-81
2022/10/06 09:13:17;;;;;;;12.77;2.50;;;14.30;99.90;;;;;;5000214;28;20128;-81
2022/10/06 09:16:06;;;;;;;12.95;2.55;;;14.40;99.90;;;;;;4999272;28;20626;-80
2022/10/06 09:18:54;;;;;;;15.10;2.75;;;14.40;99.90;;;;;;5003254;28;20050;-80
2022/10/06 09:21:35;;;;;;;12.85;2.63;;;14.50;99.90;;;;;;5006236;28;20558;-80
2022/10/06 09:24:12;;;;;;;12.55;2.85;;;14.60;99.90;;;;;;5008411;28;20049;-80
2022/10/06 09:26:42;;;;;;;;;;;14.60;99.90;;;;;;5008108;28;20396;-80
2022/10/06 09:29:08;;;;;;;11.52;2.15;;;14.60;99.90;;;;;;5004397;28;19928;-78
2022/10/06 09:31:40;;;;;;;11.60;1.90;;;14.70;99.90;;;;;;5005208;28;20042;-79
2022/10/06 09:34:37;;;;;;;14.30;2.15;;;14.70;99.90;;;;;;5005270;28;20099;-80
2022/10/06 09:37:06;;;;;;;13.10;2.00;;;14.80;99.90;;;;;;5019707;28;20049;-77
2022/10/06 09:39:37;;;;;;;12.68;2.35;;;14.80;99.90;;;;;;5006762;28;20050;-77
2022/10/06 09:42:22;;;;;;;12.18;2.28;;;14.80;99.90;;;;;;5007880;28;20033;-77
2022/10/06 09:45:09;;;;;;;9.45;2.15;;;14.80;99.90;;;;;;5000138;28;20045;-77
2022/10/06 09:47:38;;;;;;;12.82;2.13;;;14.80;99.90;;;;;;4998375;28;20054;-78
2022/10/06 09:50:21;;;;;;;10.88;1.98;;;14.90;99.90;;;;;;5001140;28;20603;-79
2022/10/06 09:53:04;;;;;;;16.90;2.50;;;15.00;99.90;;;;;;4989117;28;20092;-75
2022/10/06 09:55:44;;;;;;;12.98;2.28;;;15.00;99.90;;;;;;4999864;28;20073;-78
2022/10/06 09:58:36;;;;;;;12.68;2.08;;;15.00;99.90;;;;;;5009818;28;20045;-76
2022/10/06 10:01:06;;;;;;;13.35;2.40;;;15.20;99.90;;;;;;5008995;28;20042;-78
2022/10/06 10:03:49;;;;;;;13.35;1.95;;;15.30;99.90;;;;;;4994217;28;20135;-71
2022/10/06 10:06:26;;;;;;;10.30;2.13;;;15.40;99.90;;;;;;5010800;28;20049;-71
2022/10/06 10:09:27;;;;;;;12.52;1.92;;;15.40;99.90;;;;;;5009305;28;20041;-72
2022/10/06 10:12:24;;;;;;;11.82;2.75;;;15.50;99.90;;;;;;4992106;28;20145;-72
2022/10/06 10:15:02;;;;;;;13.02;2.38;;;15.60;99.90;;;;;;5005368;28;20053;-72
2022/10/06 10:17:41;;;;;;;11.23;2.55;;;15.60;99.90;;;;;;4987165;28;20053;-74
2022/10/06 10:20:35;;;;;;;14.40;2.38;;;15.50;99.90;;;;;;4993062;28;20053;-74
2022/10/06 10:23:19;;;;;;;11.82;2.10;;;15.50;99.90;;;;;;4992099;28;20049;-74
2022/10/06 10:26:11;;;;;;;13.65;2.35;;;15.50;99.90;;;;;;5009600;28;20041;-74
2022/10/06 10:28:55;;;;;;;12.40;2.17;;;15.50;99.90;;;;;;5009139;28;20049;-77
2022/10/06 10:31:48;;;;;;;12.80;2.25;;;15.60;99.90;;;;;;5001314;28;20069;-76
2022/10/06 10:34:34;;;;;;;7.88;1.80;;;15.70;99.90;;;;;;5005753;28;20049;-76
2022/10/06 10:37:11;;;;;;;11.27;1.95;;;15.70;99.90;;;;;;4982299;28;20054;-79
2022/10/06 10:39:41;;;;;;;10.75;2.08;;;15.80;99.90;;;;;;5006109;28;20046;-80
2022/10/06 10:42:32;;;;;;;11.50;2.03;;;15.90;99.90;;;;;;5005348;28;20137;-80
2022/10/06 10:45:03;;;;;;;10.02;1.50;;;15.90;99.90;;;;;;5006234;28;20038;-82
2022/10/06 10:47:38;;;;;;;10.98;2.03;;;15.90;99.90;;;;;;5008019;28;20614;-83
2022/10/06 10:50:25;;;;;;;11.60;2.17;;;16.00;99.90;;;;;;5028440;28;20484;-82
2022/10/06 10:53:13;;;;;;;12.02;2.03;;;16.00;99.90;;;;;;5028307;28;20511;-83
2022/10/06 10:55:46;;;;;;;8.43;1.73;;;16.10;99.90;;;;;;5025713;28;20041;-76
2022/10/06 10:58:27;;;;;;;8.98;1.95;;;16.00;99.90;;;;;;5027764;28;20419;-79
2022/10/06 11:01:04;;;;;;;9.77;1.73;;;15.90;99.90;;;;;;5025040;28;20040;-76
2022/10/06 11:03:29;;;;;;;10.20;2.13;;;15.80;99.90;;;;;;5028443;28;20507;-79
2022/10/06 11:05:55;;;;;;;9.10;2.13;;;15.70;99.90;;;;;;5027974;28;20037;-80
2022/10/06 11:08:33;;;;;;;7.45;1.65;;;15.70;99.90;;;;;;5024342;28;20040;-79
2022/10/06 11:11:03;;;;;;;6.10;1.50;;;15.70;99.90;;;;;;5028593;28;20049;-75
2022/10/06 11:13:37;;;;;;;10.23;2.00;;;15.80;99.90;;;;;;5026285;28;20038;-80
2022/10/06 11:16:30;;;;;;;10.13;1.83;;;15.90;99.90;;;;;;5028794;28;20115;-73
2022/10/06 11:19:18;;;;;;;10.65;1.98;;;15.90;99.90;;;;;;5024338;28;20071;-77
2022/10/06 11:22:02;;;;;;;9.93;1.88;;;16.00;99.90;;;;;;4996578;28;20523;-78
2022/10/06 11:24:42;;;;;;;9.48;2.70;;;16.00;99.90;;;;;;5025636;28;20042;-76
2022/10/06 11:27:35;;;;;;;10.70;1.92;;;16.00;99.90;;;;;;5024255;28;20041;-81
2022/10/06 11:30:01;;;;;;;8.98;2.00;;;16.00;99.90;;;;;;5027589;28;20041;-77
2022/10/06 11:32:35;;;;;;;10.55;1.65;;;16.10;99.90;;;;;;5024008;28;20048;-76
2022/10/06 11:35:01;;;;;;;7.82;1.70;;;16.20;99.90;;;;;;5009625;28;20126;-77
2022/10/06 11:37:38;;;;;;;9.75;2.13;;;16.20;99.90;;;;;;5028303;28;20092;-76
2022/10/06 11:40:35;;;;;;;7.60;1.63;;;16.20;99.90;;;;;;5019228;28;20111;-76
2022/10/06 11:43:16;;;;;;;7.80;1.80;;;16.20;99.90;;;;;;5019556;28;20414;-77
2022/10/06 11:45:50;;;;;;;10.27;1.80;;;16.20;99.90;;;;;;5027438;28;20650;-77
2022/10/06 11:48:24;;;;;;;12.15;2.03;;;16.30;99.90;;;;;;5022139;28;20132;-75
2022/10/06 11:50:54;;;;;;;9.10;1.85;;;16.30;99.90;;;;;;5028298;28;20060;-77
2022/10/06 11:53:35;;;;;;;5.70;1.50;;;16.30;99.90;;;;;;5028254;28;20057;-75
2022/10/06 11:56:16;;;;;;;8.18;1.40;;;16.40;99.90;;;;;;5026212;28;20054;-77
2022/10/06 11:58:54;;;;;;;7.55;1.50;;;16.50;99.90;;;;;;5026111;28;20095;-79
2022/10/06 12:01:38;;;;;;;11.63;2.13;;;16.50;99.90;;;;;;5028121;28;20257;-78
2022/10/06 12:04:09;;;;;;;11.73;1.88;;;16.50;99.90;;;;;;5027153;28;20041;-78
2022/10/06 12:06:41;;;;;;;8.88;1.90;;;16.60;99.90;;;;;;5024548;28;20541;-78
2022/10/06 12:09:27;;;;;;;7.80;1.80;;;16.60;99.90;;;;;;5008601;28;20102;-77
2022/10/06 12:11:58;;;;;;;9.45;1.92;;;16.70;99.90;;;;;;5026328;28;20080;-78
2022/10/06 12:14:29;;;;;;;7.95;1.92;;;16.70;99.90;;;;;;5025319;28;20453;-79
2022/10/06 12:17:05;;;;;;;8.07;1.80;;;16.70;99.90;;;;;;5024998;28;20128;-79
2022/10/06 12:19:53;;;;;;;8.60;1.73;;;16.80;99.90;;;;;;5025968;28;20085;-76
2022/10/06 12:22:29;;;;;;;9.88;2.08;;;16.80;99.90;;;;;;5009785;28;20045;-78
2022/10/06 12:25:23;;;;;;;6.47;1.48;;;16.80;99.90;;;;;;5021397;28;20123;-77
2022/10/06 12:27:52;;;;;;;10.77;1.73;;;16.90;99.90;;;;;;5025681;28;20480;-77
2022/10/06 12:30:20;;;;;;;11.73;1.63;;;16.90;99.90;;;;;;5028349;28;20046;-79
2022/10/06 12:32:53;;;;;;;6.45;1.48;;;17.00;99.90;;;;;;5027870;28;20049;-77
2022/10/06 12:35:34;;;;;;;9.73;1.50;;;17.10;99.90;;;;;;5025604;28;20048;-77
2022/10/06 12:38:05;;;;;;;9.25;1.63;;;17.20;99.90;;;;;;5021395;28;20053;-78
2022/10/06 12:40:42;;;;;;;8.82;1.50;;;17.20;99.00;;;;;;5023492;28;20476;-80
2022/10/06 12:43:33;;;;;;;7.22;1.77;;;17.30;99.90;;;;;;5022479;28;20535;-78
2022/10/06 12:46:20;;;;;;;9.27;1.67;;;17.30;99.10;;;;;;5011905;28;20045;-77
2022/10/06 12:49:08;;;;;;;5.55;1.50;;;17.30;99.40;;;;;;5020349;28;20057;-80
2022/10/06 12:51:42;;;;;;;6.30;1.52;;;17.30;99.40;;;;;;5022634;28;20060;-78
2022/10/06 12:54:14;;;;;;;7.78;1.63;;;17.30;99.80;;;;;;5022015;28;20072;-79
2022/10/06 12:56:55;;;;;;;7.78;1.80;;;17.30;99.30;;;;;;5023593;28;20144;-79
2022/10/06 12:59:26;;;;;;;6.65;1.30;;;17.30;96.50;;;;;;5023778;28;20551;-81
2022/10/06 13:01:59;;;;;;;7.45;1.40;;;17.30;98.20;;;;;;5025305;28;20133;-78
2022/10/06 13:04:37;;;;;;;10.82;2.13;;;17.30;96.10;;;;;;5022138;28;20482;-82
2022/10/06 13:07:25;;;;;;;8.88;1.48;;;17.30;97.30;;;;;;5016429;28;20539;-79
2022/10/06 13:09:54;;;;;;;11.77;2.17;;;17.30;99.40;;;;;;5025136;28;20049;-81
2022/10/06 13:12:35;;;;;;;8.68;1.70;;;17.30;99.90;;;;;;5025707;28;20069;-82
2022/10/06 13:15:29;;;;;;;9.18;1.65;;;17.30;99.70;;;;;;5025054;28;20052;-83